Current Conditions
Light Rain
Showers



Pressure
978.92 (hPa) - 28.91 (inHG)
Visibility

9.0 (km) - 5.6 (miles)
   Temperature
5  °C
41°F
3  °C
Dewpoint
87  %
 Humidity
   Wind Speed
29  km/h
16  kts
18  mph
8.0  m/s
   Wind Direction
 220°
South West
   Airport Data
EHGG
Location Eelde 47 km (29.21 mi)
Metar :EHGG 140525Z AUTO 22016KT 9000 -SHRA FEW010 FEW015CB SCT029 OVC033 05/03 Q0979 REDZ TEMPO 6000 RADZ BKN012
Sat 14th December 07:25 am
   Raw Metar Info
Raw METAR is the most common format in the world for the transmission of observational weather data. It is highly standardized through the International Civil Aviation Organization (ICAO), which allows it to be understood throughout most of the world.
   API Info
Data Provided by
https://www.checkwx.com/weather/EHGG
   © Info
CSS/SVG/PHP scripts were developed by weather34.com for use in the weather34 template © 2015-2019

Guide Info provided by Metar-Wikipedia